Time,TemperatureF,DewpointF,PressureIn,WindDirection,WindDirectionDegrees,WindSpeedMPH,WindSpeedGustMPH,Humidity,HourlyPrecipIn,Conditions,Clouds,dailyrainin,SolarRadiationWatts/m^2,SoftwareType,DateUTC
2013-01-10 00:22:00,47.0,37.0,-100.00,WNW,300,22.0,32.0,69,0.00,,,0.00,0.000000,,2013-01-10 08:22:00,
2013-01-10 00:32:00,47.0,37.0,-100.00,WNW,300,22.0,32.0,69,0.00,,,0.00,0.000000,,2013-01-10 08:32:00,
2013-01-10 00:42:00,47.0,37.0,-100.00,WNW,300,22.0,32.0,69,0.00,,,0.00,0.000000,,2013-01-10 08:42:00,
2013-01-10 00:52:00,47.0,37.0,-100.00,WNW,300,22.0,32.0,69,0.00,,,0.00,0.000000,,2013-01-10 08:52:00,
2013-01-10 01:22:00,48.0,38.0,-100.00,WNW,289,6.0,30.0,67,0.00,,,0.00,0.000000,,2013-01-10 09:22:00,
2013-01-10 01:32:00,48.0,38.0,-100.00,WNW,289,6.0,30.0,67,0.00,,,0.00,0.000000,,2013-01-10 09:32:00,
2013-01-10 01:42:00,48.0,38.0,-100.00,WNW,289,6.0,30.0,67,0.00,,,0.00,0.000000,,2013-01-10 09:42:00,
2013-01-10 01:52:00,48.0,38.0,-100.00,WNW,289,6.0,30.0,67,0.00,,,0.00,0.000000,,2013-01-10 09:52:00,
2013-01-10 02:22:00,47.0,37.0,-100.00,ESE,109,2.0,13.0,69,0.00,,,0.00,0.000000,,2013-01-10 10:22:00,
2013-01-10 02:32:00,47.0,37.0,-100.00,ESE,109,2.0,13.0,69,0.00,,,0.00,0.000000,,2013-01-10 10:32:00,
2013-01-10 02:42:00,47.0,37.0,-100.00,ESE,109,2.0,13.0,69,0.00,,,0.00,0.000000,,2013-01-10 10:42:00,
2013-01-10 02:52:00,47.0,37.0,-100.00,ESE,109,2.0,13.0,69,0.00,,,0.00,0.000000,,2013-01-10 10:52:00,
2013-01-10 03:22:00,45.0,38.0,-100.00,SSE,167,18.0,26.0,75,0.00,,,0.00,0.000000,,2013-01-10 11:22:00,
2013-01-10 03:32:00,45.0,38.0,-100.00,SSE,167,18.0,26.0,75,0.00,,,0.00,0.000000,,2013-01-10 11:32:00,
2013-01-10 03:42:00,45.0,38.0,-100.00,SSE,167,18.0,26.0,75,0.00,,,0.00,0.000000,,2013-01-10 11:42:00,
2013-01-10 03:52:00,45.0,38.0,-100.00,SSE,167,18.0,26.0,75,0.00,,,0.00,0.000000,,2013-01-10 11:52:00,
2013-01-10 06:22:00,40.0,22.0,-100.00,NNW,331,8.0,29.0,49,-99.99,,,0.00,0.000000,,2013-01-10 14:22:00,
2013-01-10 06:32:00,40.0,22.0,-100.00,NNW,331,8.0,29.0,49,-99.99,,,0.00,0.000000,,2013-01-10 14:32:00,
2013-01-10 06:43:00,40.0,22.0,-100.00,NNW,331,8.0,29.0,49,-99.99,,,0.00,0.000000,,2013-01-10 14:43:00,
2013-01-10 06:52:00,40.0,22.0,-100.00,NNW,331,8.0,29.0,49,-99.99,,,0.00,0.000000,,2013-01-10 14:52:00,
2013-01-10 07:22:00,39.0,17.0,-100.00,ENE,67,11.0,26.0,41,0.00,,,0.00,0.000000,,2013-01-10 15:22:00,
2013-01-10 07:32:00,39.0,17.0,-100.00,ENE,67,11.0,26.0,41,0.00,,,0.00,0.000000,,2013-01-10 15:32:00,
2013-01-10 07:43:00,39.0,17.0,-100.00,ENE,67,11.0,26.0,41,0.00,,,0.00,0.000000,,2013-01-10 15:43:00,
2013-01-10 07:52:00,39.0,17.0,-100.00,ENE,67,11.0,26.0,41,0.00,,,0.00,0.000000,,2013-01-10 15:52:00,
2013-01-10 08:22:00,39.0,17.0,-100.00,North,2,16.0,27.0,41,0.00,,,0.00,54.000000,,2013-01-10 16:22:00,
2013-01-10 08:33:00,39.0,17.0,-100.00,North,2,16.0,27.0,41,0.00,,,0.00,54.000000,,2013-01-10 16:33:00,
2013-01-10 08:42:00,39.0,17.0,-100.00,North,2,16.0,27.0,41,0.00,,,0.00,54.000000,,2013-01-10 16:42:00,
2013-01-10 08:52:00,39.0,17.0,-100.00,North,2,16.0,27.0,41,0.00,,,0.00,54.000000,,2013-01-10 16:52:00,
2013-01-10 09:22:00,39.0,20.0,-100.00,NW,307,24.0,31.0,46,0.00,,,0.00,291.000000,,2013-01-10 17:22:00,
2013-01-10 09:33:00,39.0,20.0,-100.00,NW,307,24.0,31.0,46,0.00,,,0.00,291.000000,,2013-01-10 17:33:00,
2013-01-10 09:42:00,39.0,20.0,-100.00,NW,307,24.0,31.0,46,0.00,,,0.00,291.000000,,2013-01-10 17:42:00,
2013-01-10 09:53:00,39.0,20.0,-100.00,NW,307,24.0,31.0,46,0.00,,,0.00,291.000000,,2013-01-10 17:53:00,
2013-01-10 10:22:00,37.0,22.0,-100.00,NW,316,29.0,42.0,54,0.00,,,0.00,478.000000,,2013-01-10 18:22:00,
2013-01-10 10:33:00,37.0,22.0,-100.00,NW,316,29.0,42.0,54,0.00,,,0.00,478.000000,,2013-01-10 18:33:00,
2013-01-10 10:43:00,37.0,22.0,-100.00,NW,316,29.0,42.0,54,0.00,,,0.00,478.000000,,2013-01-10 18:43:00,
2013-01-10 10:52:00,37.0,22.0,-100.00,NW,316,29.0,42.0,54,0.00,,,0.00,478.000000,,2013-01-10 18:52:00,
2013-01-10 11:23:00,37.0,17.0,-100.00,NW,322,29.0,43.0,44,0.00,,,-99.99,569.000000,,2013-01-10 19:23:00,
2013-01-10 11:32:00,37.0,17.0,-100.00,NW,322,29.0,43.0,44,0.00,,,-99.99,569.000000,,2013-01-10 19:32:00,
2013-01-10 11:43:00,37.0,17.0,-100.00,NW,322,29.0,43.0,44,0.00,,,-99.99,569.000000,,2013-01-10 19:43:00,
2013-01-10 11:52:00,37.0,17.0,-100.00,NW,322,29.0,43.0,44,0.00,,,-99.99,569.000000,,2013-01-10 19:52:00,
2013-01-10 12:23:00,38.0,17.0,-100.00,NW,324,29.0,47.0,42,0.00,,,0.00,645.000000,,2013-01-10 20:23:00,
2013-01-10 12:32:00,38.0,17.0,-100.00,NW,324,29.0,47.0,42,0.00,,,0.00,645.000000,,2013-01-10 20:32:00,
2013-01-10 12:42:00,38.0,17.0,-100.00,NW,324,29.0,47.0,42,0.00,,,0.00,645.000000,,2013-01-10 20:42:00,
2013-01-10 12:53:00,38.0,17.0,-100.00,NW,324,29.0,47.0,42,0.00,,,0.00,645.000000,,2013-01-10 20:53:00,
2013-01-10 13:23:00,40.0,20.0,-100.00,NNW,346,27.0,44.0,44,0.00,,,0.00,662.000000,,2013-01-10 21:23:00,
2013-01-10 13:33:00,40.0,20.0,-100.00,NNW,346,27.0,44.0,44,0.00,,,0.00,662.000000,,2013-01-10 21:33:00,
2013-01-10 13:42:00,40.0,20.0,-100.00,NNW,346,27.0,44.0,44,0.00,,,0.00,662.000000,,2013-01-10 21:42:00,
2013-01-10 13:52:00,40.0,20.0,-100.00,NNW,346,27.0,44.0,44,0.00,,,0.00,662.000000,,2013-01-10 21:52:00,
2013-01-10 14:24:00,36.0,21.0,-100.00,NW,324,22.0,47.0,55,0.00,,,0.00,676.000000,,2013-01-10 22:24:00,
2013-01-10 14:32:00,36.0,21.0,-100.00,NW,324,22.0,47.0,55,0.00,,,0.00,676.000000,,2013-01-10 22:32:00,
2013-01-10 14:43:00,36.0,21.0,-100.00,NW,324,22.0,47.0,55,0.00,,,0.00,676.000000,,2013-01-10 22:43:00,
2013-01-10 15:22:00,41.0,19.0,-100.00,North,359,22.0,39.0,41,0.00,,,0.00,562.000000,,2013-01-10 23:22:00,
2013-01-10 15:33:00,41.0,19.0,-100.00,North,359,22.0,39.0,41,0.00,,,0.00,562.000000,,2013-01-10 23:33:00,
2013-01-10 15:42:00,41.0,19.0,-100.00,North,359,22.0,39.0,41,0.00,,,0.00,562.000000,,2013-01-10 23:42:00,
2013-01-10 15:52:00,41.0,19.0,-100.00,North,359,22.0,39.0,41,0.00,,,0.00,562.000000,,2013-01-10 23:52:00,
2013-01-10 16:23:00,38.0,18.0,-100.00,NNW,346,23.0,37.0,44,0.00,,,0.00,205.000000,,2013-01-11 00:23:00,
2013-01-10 16:33:00,38.0,18.0,-100.00,NNW,346,23.0,37.0,44,0.00,,,0.00,205.000000,,2013-01-11 00:33:00,
2013-01-10 16:42:00,38.0,18.0,-100.00,NNW,346,23.0,37.0,44,0.00,,,0.00,205.000000,,2013-01-11 00:42:00,
2013-01-10 16:52:00,38.0,18.0,-100.00,NNW,346,23.0,37.0,44,0.00,,,0.00,205.000000,,2013-01-11 00:52:00,
2013-01-10 17:22:00,33.0,28.0,-100.00,NE,39,26.0,36.0,81,0.00,,,0.00,55.000000,,2013-01-11 01:22:00,
2013-01-10 17:33:00,33.0,28.0,-100.00,NE,39,26.0,36.0,81,0.00,,,0.00,55.000000,,2013-01-11 01:33:00,
2013-01-10 17:42:00,33.0,28.0,-100.00,NE,39,26.0,36.0,81,0.00,,,0.00,55.000000,,2013-01-11 01:42:00,
2013-01-10 17:52:00,33.0,28.0,-100.00,NE,39,26.0,36.0,81,0.00,,,0.00,55.000000,,2013-01-11 01:52:00,
2013-01-10 18:23:00,32.0,29.0,-100.00,NNE,16,10.0,23.0,89,0.00,,,0.00,0.000000,,2013-01-11 02:23:00,
2013-01-10 18:43:00,32.0,29.0,-100.00,NNE,16,10.0,23.0,89,0.00,,,0.00,0.000000,,2013-01-11 02:43:00,
2013-01-10 18:52:00,32.0,29.0,-100.00,NNE,16,10.0,23.0,89,0.00,,,0.00,0.000000,,2013-01-11 02:52:00,
2013-01-10 19:22:00,34.0,23.0,-100.00,NNE,12,14.0,25.0,64,0.00,,,0.00,0.000000,,2013-01-11 03:22:00,
2013-01-10 19:33:00,34.0,23.0,-100.00,NNE,12,14.0,25.0,64,0.00,,,0.00,0.000000,,2013-01-11 03:33:00,
2013-01-10 19:42:00,34.0,23.0,-100.00,NNE,12,14.0,25.0,64,0.00,,,0.00,0.000000,,2013-01-11 03:42:00,
2013-01-10 19:52:00,34.0,23.0,-100.00,NNE,12,14.0,25.0,64,0.00,,,0.00,0.000000,,2013-01-11 03:52:00,
2013-01-10 20:22:00,30.0,29.0,-100.00,NNW,332,3.0,27.0,96,0.00,,,0.00,0.000000,,2013-01-11 04:22:00,
2013-01-10 20:42:00,30.0,29.0,-100.00,NNW,332,3.0,27.0,96,0.00,,,0.00,0.000000,,2013-01-11 04:42:00,
2013-01-10 20:52:00,30.0,29.0,-100.00,NNW,332,3.0,27.0,96,0.00,,,0.00,0.000000,,2013-01-11 04:52:00,
2013-01-10 21:22:00,30.0,29.0,-100.00,SW,233,0.0,6.0,96,0.00,,,0.00,0.000000,,2013-01-11 05:22:00,
2013-01-10 21:33:00,30.0,29.0,-100.00,SW,233,0.0,6.0,96,0.00,,,0.00,0.000000,,2013-01-11 05:33:00,
2013-01-10 21:42:00,30.0,29.0,-100.00,SW,233,0.0,6.0,96,0.00,,,0.00,0.000000,,2013-01-11 05:42:00,
2013-01-10 21:52:00,30.0,29.0,-100.00,SW,233,0.0,6.0,96,0.00,,,0.00,0.000000,,2013-01-11 05:52:00,
2013-01-10 22:22:00,30.0,29.0,-100.00,SE,135,5.0,9.0,96,0.00,,,0.00,0.000000,,2013-01-11 06:22:00,
2013-01-10 22:32:00,30.0,29.0,-100.00,SE,135,5.0,9.0,96,0.00,,,0.00,0.000000,,2013-01-11 06:32:00,
2013-01-10 22:42:00,30.0,29.0,-100.00,SE,135,5.0,9.0,96,0.00,,,0.00,0.000000,,2013-01-11 06:42:00,
2013-01-10 22:52:00,30.0,29.0,-100.00,SE,135,5.0,9.0,96,0.00,,,0.00,0.000000,,2013-01-11 06:52:00,
2013-01-10 23:22:00,31.0,30.0,-100.00,SSE,159,4.0,11.0,96,0.00,,,0.00,0.000000,,2013-01-11 07:22:00,
2013-01-10 23:32:00,31.0,30.0,-100.00,SSE,159,4.0,11.0,96,0.00,,,0.00,0.000000,,2013-01-11 07:32:00,
2013-01-10 23:42:00,31.0,30.0,-100.00,SSE,159,4.0,11.0,96,0.00,,,0.00,0.000000,,2013-01-11 07:42:00,
2013-01-10 23:52:00,31.0,30.0,-100.00,SSE,159,4.0,11.0,96,0.00,,,0.00,0.000000,,2013-01-11 07:52:00,